HISTORICAL SENSOR DATA

Sensor Data Report

DB LIVE
CURRENT TIME--:--:--
DEVICE NETWORK Gateway Status
13 ESP · realtime ~1s · history 60s
Weather WS-MOD-01
OFFLINE
Actuator ACT-MOD-01
OFFLINE
Mainboard L3 MB-L3-01
ONLINE
Mainboard L5 MB-L5-01
WARNING
Remote AC AC-REMOTE-01
OFFLINE
PZEM L3-01 PWR-L3-01
OFFLINE
PZEM L3-02 PWR-L3-02
OFFLINE
PZEM L3-03 PWR-L3-03
OFFLINE
PZEM L3-04 PWR-L3-04
OFFLINE
PZEM L5-01 PWR-L5-01
OFFLINE
PZEM L5-02 PWR-L5-02
ONLINE
PZEM L5-03 PWR-L5-03
OFFLINE
PZEM L5-04 PWR-L5-04
OFFLINE
REPORT FILTER

Periode & Sensor

DATABASE HISTORY
RESET
QUICK RANGE Hari ini 7 hari 30 hari
PERIODE31 Aug 2026sampai 06 Sep 2026
TOTAL DATA50,375sensor readings
MINIMUM-0.50sesuai filter
AVERAGE95.30sesuai filter
MAXIMUM32,564.20sesuai filter
REPORT RESULT

Data Sensor

31/08/2026 — 06/09/2026 EXPORT CSV
NOTANGGALWAKTUDEVICECHANNELSENSORVALUEUNIT
2501 06/09/2026 18:09:00 MB-L3-01Mainboard Lantai 3 L3-LUX-05 Illuminance / LUX 5 392.80 lux
2502 06/09/2026 18:09:00 MB-L3-01Mainboard Lantai 3 L3-LUX-02 Illuminance / LUX 2 616.90 lux
2503 06/09/2026 18:09:00 MB-L3-01Mainboard Lantai 3 L3-AI-06 Analog Input 6 3.12 V
2504 06/09/2026 18:09:00 MB-L3-01Mainboard Lantai 3 L3-LUX-06 Illuminance / LUX 6 540.70 lux
2505 06/09/2026 18:09:00 MB-L3-01Mainboard Lantai 3 L3-SHT-02-T SHT20 2 Temperature 29.80 °C
2506 06/09/2026 18:09:00 MB-L3-01Mainboard Lantai 3 L3-RAD-02 Radiation 2 1.00 W/m²
2507 06/09/2026 18:08:00 MB-L3-01Mainboard Lantai 3 L3-SHT-01-RH SHT20 1 Humidity 41.80 %RH
2508 06/09/2026 18:08:00 MB-L3-01Mainboard Lantai 3 L3-AI-04 Analog Input 4 3.12 V
2509 06/09/2026 18:08:00 MB-L3-01Mainboard Lantai 3 L3-AI-03 Analog Input 3 3.12 V
2510 06/09/2026 18:08:00 MB-L3-01Mainboard Lantai 3 L3-AI-02 Analog Input 2 3.12 V
2511 06/09/2026 18:08:00 MB-L3-01Mainboard Lantai 3 L3-SHT-03-RH SHT20 3 Humidity 41.60 %RH
2512 06/09/2026 18:08:00 MB-L3-01Mainboard Lantai 3 L3-SHT-03-T SHT20 3 Temperature 29.90 °C
2513 06/09/2026 18:08:00 MB-L3-01Mainboard Lantai 3 L3-SHT-02-RH SHT20 2 Humidity 41.30 %RH
2514 06/09/2026 18:08:00 MB-L3-01Mainboard Lantai 3 L3-AI-01 Analog Input 1 3.12 V
2515 06/09/2026 18:08:00 MB-L3-01Mainboard Lantai 3 L3-LUX-05 Illuminance / LUX 5 393.10 lux
2516 06/09/2026 18:08:00 MB-L3-01Mainboard Lantai 3 L3-LUX-02 Illuminance / LUX 2 616.90 lux
2517 06/09/2026 18:08:00 MB-L3-01Mainboard Lantai 3 L3-AI-06 Analog Input 6 3.12 V
2518 06/09/2026 18:08:00 MB-L3-01Mainboard Lantai 3 L3-LUX-06 Illuminance / LUX 6 541.10 lux
2519 06/09/2026 18:08:00 MB-L3-01Mainboard Lantai 3 L3-SHT-02-T SHT20 2 Temperature 30.00 °C
2520 06/09/2026 18:08:00 MB-L3-01Mainboard Lantai 3 L3-RAD-02 Radiation 2 1.00 W/m²
2521 06/09/2026 18:08:00 MB-L3-01Mainboard Lantai 3 L3-RAD-01 Radiation 1 1.00 W/m²
2522 06/09/2026 18:08:00 MB-L3-01Mainboard Lantai 3 L3-SHT-01-T SHT20 1 Temperature 29.60 °C
2523 06/09/2026 18:08:00 MB-L3-01Mainboard Lantai 3 L3-AI-05 Analog Input 5 3.12 V
2524 06/09/2026 18:08:00 MB-L3-01Mainboard Lantai 3 L3-LUX-04 Illuminance / LUX 4 588.90 lux
2525 06/09/2026 18:08:00 MB-L3-01Mainboard Lantai 3 L3-LUX-01 Illuminance / LUX 1 505.40 lux
2526 06/09/2026 18:08:00 MB-L3-01Mainboard Lantai 3 L3-LUX-03 Illuminance / LUX 3 737.50 lux
2527 06/09/2026 18:07:00 MB-L3-01Mainboard Lantai 3 L3-AI-02 Analog Input 2 3.12 V
2528 06/09/2026 18:07:00 MB-L3-01Mainboard Lantai 3 L3-SHT-03-RH SHT20 3 Humidity 41.70 %RH
2529 06/09/2026 18:07:00 MB-L3-01Mainboard Lantai 3 L3-SHT-03-T SHT20 3 Temperature 29.80 °C
2530 06/09/2026 18:07:00 MB-L3-01Mainboard Lantai 3 L3-SHT-02-RH SHT20 2 Humidity 41.50 %RH
2531 06/09/2026 18:07:00 MB-L3-01Mainboard Lantai 3 L3-AI-01 Analog Input 1 3.12 V
2532 06/09/2026 18:07:00 MB-L3-01Mainboard Lantai 3 L3-LUX-05 Illuminance / LUX 5 393.30 lux
2533 06/09/2026 18:07:00 MB-L3-01Mainboard Lantai 3 L3-LUX-02 Illuminance / LUX 2 617.10 lux
2534 06/09/2026 18:07:00 MB-L3-01Mainboard Lantai 3 L3-AI-06 Analog Input 6 3.12 V
2535 06/09/2026 18:07:00 MB-L3-01Mainboard Lantai 3 L3-LUX-06 Illuminance / LUX 6 541.40 lux
2536 06/09/2026 18:07:00 MB-L3-01Mainboard Lantai 3 L3-SHT-02-T SHT20 2 Temperature 29.90 °C
2537 06/09/2026 18:07:00 MB-L3-01Mainboard Lantai 3 L3-RAD-02 Radiation 2 1.00 W/m²
2538 06/09/2026 18:07:00 MB-L3-01Mainboard Lantai 3 L3-RAD-01 Radiation 1 1.00 W/m²
2539 06/09/2026 18:07:00 MB-L3-01Mainboard Lantai 3 L3-SHT-01-T SHT20 1 Temperature 29.70 °C
2540 06/09/2026 18:07:00 MB-L3-01Mainboard Lantai 3 L3-AI-05 Analog Input 5 3.12 V
2541 06/09/2026 18:07:00 MB-L3-01Mainboard Lantai 3 L3-LUX-04 Illuminance / LUX 4 589.10 lux
2542 06/09/2026 18:07:00 MB-L3-01Mainboard Lantai 3 L3-LUX-01 Illuminance / LUX 1 505.40 lux
2543 06/09/2026 18:07:00 MB-L3-01Mainboard Lantai 3 L3-LUX-03 Illuminance / LUX 3 738.10 lux
2544 06/09/2026 18:07:00 MB-L3-01Mainboard Lantai 3 L3-SHT-01-RH SHT20 1 Humidity 41.80 %RH
2545 06/09/2026 18:07:00 MB-L3-01Mainboard Lantai 3 L3-AI-04 Analog Input 4 3.12 V
2546 06/09/2026 18:07:00 MB-L3-01Mainboard Lantai 3 L3-AI-03 Analog Input 3 3.12 V
2547 06/09/2026 18:06:00 MB-L3-01Mainboard Lantai 3 L3-SHT-02-RH SHT20 2 Humidity 41.30 %RH
2548 06/09/2026 18:06:00 MB-L3-01Mainboard Lantai 3 L3-AI-01 Analog Input 1 3.12 V
2549 06/09/2026 18:06:00 MB-L3-01Mainboard Lantai 3 L3-LUX-05 Illuminance / LUX 5 393.60 lux
2550 06/09/2026 18:06:00 MB-L3-01Mainboard Lantai 3 L3-LUX-02 Illuminance / LUX 2 618.60 lux
2551 06/09/2026 18:06:00 MB-L3-01Mainboard Lantai 3 L3-AI-06 Analog Input 6 3.12 V
2552 06/09/2026 18:06:00 MB-L3-01Mainboard Lantai 3 L3-LUX-06 Illuminance / LUX 6 542.90 lux
2553 06/09/2026 18:06:00 MB-L3-01Mainboard Lantai 3 L3-SHT-02-T SHT20 2 Temperature 29.90 °C
2554 06/09/2026 18:06:00 MB-L3-01Mainboard Lantai 3 L3-RAD-02 Radiation 2 1.00 W/m²
2555 06/09/2026 18:06:00 MB-L3-01Mainboard Lantai 3 L3-RAD-01 Radiation 1 1.00 W/m²
2556 06/09/2026 18:06:00 MB-L3-01Mainboard Lantai 3 L3-SHT-01-T SHT20 1 Temperature 29.60 °C
2557 06/09/2026 18:06:00 MB-L3-01Mainboard Lantai 3 L3-AI-05 Analog Input 5 3.12 V
2558 06/09/2026 18:06:00 MB-L3-01Mainboard Lantai 3 L3-LUX-04 Illuminance / LUX 4 589.50 lux
2559 06/09/2026 18:06:00 MB-L3-01Mainboard Lantai 3 L3-LUX-01 Illuminance / LUX 1 505.40 lux
2560 06/09/2026 18:06:00 MB-L3-01Mainboard Lantai 3 L3-LUX-03 Illuminance / LUX 3 738.50 lux
2561 06/09/2026 18:06:00 MB-L3-01Mainboard Lantai 3 L3-SHT-01-RH SHT20 1 Humidity 41.80 %RH
2562 06/09/2026 18:06:00 MB-L3-01Mainboard Lantai 3 L3-AI-04 Analog Input 4 3.12 V
2563 06/09/2026 18:06:00 MB-L3-01Mainboard Lantai 3 L3-AI-03 Analog Input 3 3.12 V
2564 06/09/2026 18:06:00 MB-L3-01Mainboard Lantai 3 L3-AI-02 Analog Input 2 3.12 V
2565 06/09/2026 18:06:00 MB-L3-01Mainboard Lantai 3 L3-SHT-03-RH SHT20 3 Humidity 41.70 %RH
2566 06/09/2026 18:06:00 MB-L3-01Mainboard Lantai 3 L3-SHT-03-T SHT20 3 Temperature 29.90 °C
2567 06/09/2026 18:05:00 MB-L3-01Mainboard Lantai 3 L3-LUX-02 Illuminance / LUX 2 619.30 lux
2568 06/09/2026 18:05:00 MB-L3-01Mainboard Lantai 3 L3-AI-06 Analog Input 6 3.12 V
2569 06/09/2026 18:05:00 MB-L3-01Mainboard Lantai 3 L3-LUX-06 Illuminance / LUX 6 543.30 lux
2570 06/09/2026 18:05:00 MB-L3-01Mainboard Lantai 3 L3-SHT-02-T SHT20 2 Temperature 29.90 °C
2571 06/09/2026 18:05:00 MB-L3-01Mainboard Lantai 3 L3-RAD-02 Radiation 2 1.00 W/m²
2572 06/09/2026 18:05:00 MB-L3-01Mainboard Lantai 3 L3-RAD-01 Radiation 1 1.00 W/m²
2573 06/09/2026 18:05:00 MB-L3-01Mainboard Lantai 3 L3-SHT-01-T SHT20 1 Temperature 29.60 °C
2574 06/09/2026 18:05:00 MB-L3-01Mainboard Lantai 3 L3-AI-05 Analog Input 5 3.12 V
2575 06/09/2026 18:05:00 MB-L3-01Mainboard Lantai 3 L3-LUX-04 Illuminance / LUX 4 589.80 lux
2576 06/09/2026 18:05:00 MB-L3-01Mainboard Lantai 3 L3-LUX-01 Illuminance / LUX 1 505.90 lux
2577 06/09/2026 18:05:00 MB-L3-01Mainboard Lantai 3 L3-LUX-03 Illuminance / LUX 3 738.40 lux
2578 06/09/2026 18:05:00 MB-L3-01Mainboard Lantai 3 L3-SHT-01-RH SHT20 1 Humidity 41.80 %RH
2579 06/09/2026 18:05:00 MB-L3-01Mainboard Lantai 3 L3-AI-04 Analog Input 4 3.12 V
2580 06/09/2026 18:05:00 MB-L3-01Mainboard Lantai 3 L3-AI-03 Analog Input 3 3.12 V
2581 06/09/2026 18:05:00 MB-L3-01Mainboard Lantai 3 L3-AI-02 Analog Input 2 3.12 V
2582 06/09/2026 18:05:00 MB-L3-01Mainboard Lantai 3 L3-SHT-03-RH SHT20 3 Humidity 41.80 %RH
2583 06/09/2026 18:05:00 MB-L3-01Mainboard Lantai 3 L3-SHT-03-T SHT20 3 Temperature 29.80 °C
2584 06/09/2026 18:05:00 MB-L3-01Mainboard Lantai 3 L3-SHT-02-RH SHT20 2 Humidity 41.30 %RH
2585 06/09/2026 18:05:00 MB-L3-01Mainboard Lantai 3 L3-AI-01 Analog Input 1 3.12 V
2586 06/09/2026 18:05:00 MB-L3-01Mainboard Lantai 3 L3-LUX-05 Illuminance / LUX 5 394.10 lux
2587 06/09/2026 18:04:00 MB-L3-01Mainboard Lantai 3 L3-LUX-04 Illuminance / LUX 4 590.00 lux
2588 06/09/2026 18:04:00 MB-L3-01Mainboard Lantai 3 L3-LUX-01 Illuminance / LUX 1 506.10 lux
2589 06/09/2026 18:04:00 MB-L3-01Mainboard Lantai 3 L3-LUX-03 Illuminance / LUX 3 739.00 lux
2590 06/09/2026 18:04:00 MB-L3-01Mainboard Lantai 3 L3-SHT-01-RH SHT20 1 Humidity 42.00 %RH
2591 06/09/2026 18:04:00 MB-L3-01Mainboard Lantai 3 L3-AI-04 Analog Input 4 3.12 V
2592 06/09/2026 18:04:00 MB-L3-01Mainboard Lantai 3 L3-AI-03 Analog Input 3 3.12 V
2593 06/09/2026 18:04:00 MB-L3-01Mainboard Lantai 3 L3-AI-02 Analog Input 2 3.12 V
2594 06/09/2026 18:04:00 MB-L3-01Mainboard Lantai 3 L3-SHT-03-RH SHT20 3 Humidity 41.70 %RH
2595 06/09/2026 18:04:00 MB-L3-01Mainboard Lantai 3 L3-SHT-03-T SHT20 3 Temperature 29.80 °C
2596 06/09/2026 18:04:00 MB-L3-01Mainboard Lantai 3 L3-SHT-02-RH SHT20 2 Humidity 41.30 %RH
2597 06/09/2026 18:04:00 MB-L3-01Mainboard Lantai 3 L3-AI-01 Analog Input 1 3.12 V
2598 06/09/2026 18:04:00 MB-L3-01Mainboard Lantai 3 L3-LUX-05 Illuminance / LUX 5 394.60 lux
2599 06/09/2026 18:04:00 MB-L3-01Mainboard Lantai 3 L3-LUX-02 Illuminance / LUX 2 618.40 lux
2600 06/09/2026 18:04:00 MB-L3-01Mainboard Lantai 3 L3-AI-06 Analog Input 6 3.12 V
Menampilkan maksimal 100 data per halaman